createdAt,value
2023-08-29T00:01:15.858Z,23.00
2023-08-29T00:04:22.715Z,24.18
2023-08-29T00:07:29.385Z,25.40
2023-08-29T00:10:36.463Z,25.40
2023-08-29T00:13:42.614Z,26.82
2023-08-29T00:16:48.053Z,25.65
2023-08-29T00:19:53.398Z,24.95
2023-08-29T00:22:59.565Z,23.92
2023-08-29T00:26:07.121Z,25.62
2023-08-29T00:29:11.909Z,25.80
2023-08-29T00:32:19.593Z,25.97
2023-08-29T00:35:25.661Z,28.00
2023-08-29T00:38:33.772Z,24.52
2023-08-29T00:41:40.030Z,25.43
2023-08-29T00:44:47.320Z,32.50
2023-08-29T00:47:54.452Z,28.75
2023-08-29T00:51:01.128Z,27.25
2023-08-29T00:54:08.573Z,27.73
2023-08-29T00:57:14.542Z,30.08
2023-08-29T01:00:22.115Z,26.25
2023-08-29T01:03:30.219Z,24.52
2023-08-29T01:06:36.705Z,26.55
2023-08-29T01:09:41.962Z,26.20
2023-08-29T01:13:06.127Z,34.75
2023-08-29T01:16:13.705Z,27.00
2023-08-29T01:19:25.237Z,27.42
2023-08-29T01:23:12.271Z,27.07
2023-08-29T01:26:30.236Z,26.35
2023-08-29T01:29:36.460Z,27.20
2023-08-29T01:32:42.713Z,26.60
2023-08-29T01:35:51.564Z,28.38
2023-08-29T01:38:58.639Z,27.25
2023-08-29T01:42:05.639Z,28.35
2023-08-29T01:45:11.649Z,29.40
2023-08-29T01:48:18.068Z,28.42
2023-08-29T01:51:25.351Z,27.73
2023-08-29T01:54:32.423Z,27.90
2023-08-29T01:57:39.653Z,29.37
2023-08-29T02:00:47.576Z,28.38
2023-08-29T02:03:53.136Z,28.47
2023-08-29T02:07:00.354Z,30.15
2023-08-29T02:10:05.482Z,27.73
2023-08-29T02:13:10.738Z,28.35
2023-08-29T02:16:19.468Z,30.15
2023-08-29T02:19:25.425Z,27.05
2023-08-29T02:22:31.597Z,27.82
2023-08-29T02:25:37.757Z,27.32
2023-08-29T02:28:45.040Z,27.93
2023-08-29T02:31:50.902Z,27.15
2023-08-29T02:34:57.586Z,26.95
2023-08-29T02:38:07.062Z,28.40
2023-08-29T02:41:12.357Z,28.42
2023-08-29T02:44:18.214Z,30.43
2023-08-29T02:47:24.810Z,29.05
2023-08-29T02:50:30.184Z,30.10
2023-08-29T02:53:38.339Z,27.50
2023-08-29T02:56:44.292Z,28.77
2023-08-29T02:59:49.259Z,28.30
2023-08-29T03:02:55.750Z,32.83
2023-08-29T03:06:12.697Z,31.27
2023-08-29T03:09:18.995Z,28.77
2023-08-29T03:12:25.827Z,26.45
2023-08-29T03:15:31.280Z,27.95
2023-08-29T03:18:38.413Z,29.30
2023-08-29T03:21:44.268Z,28.07
2023-08-29T03:24:50.212Z,26.93
2023-08-29T03:27:58.087Z,31.17
2023-08-29T03:31:03.782Z,29.90
2023-08-29T03:34:10.712Z,29.57
2023-08-29T03:37:16.912Z,31.60
2023-08-29T03:40:25.628Z,29.27
2023-08-29T03:43:33.155Z,30.10
2023-08-29T03:46:41.694Z,30.30
2023-08-29T03:49:49.880Z,28.42
2023-08-29T03:52:55.532Z,32.45
2023-08-29T03:56:00.782Z,30.97
2023-08-29T03:59:08.569Z,32.75
2023-08-29T04:02:16.556Z,30.85
2023-08-29T04:05:28.179Z,32.98
2023-08-29T04:08:34.434Z,29.35
2023-08-29T04:11:39.669Z,28.40
2023-08-29T04:14:44.724Z,28.47
2023-08-29T04:17:50.503Z,29.32
2023-08-29T04:20:50.715Z,28.67
2023-08-29T04:23:43.556Z,33.38
2023-08-29T04:26:48.279Z,32.60
2023-08-29T04:29:54.750Z,31.05
2023-08-29T04:33:01.101Z,34.88
2023-08-29T04:36:07.887Z,31.27
2023-08-29T04:39:14.464Z,32.15
2023-08-29T04:42:23.538Z,39.05
2023-08-29T04:45:28.958Z,28.00
2023-08-29T04:48:33.708Z,29.72
2023-08-29T04:51:39.335Z,30.48
2023-08-29T04:54:45.171Z,31.30
2023-08-29T04:57:50.301Z,32.42
2023-08-29T05:00:56.567Z,29.25
2023-08-29T05:04:03.196Z,33.78
2023-08-29T05:07:08.057Z,31.17
2023-08-29T05:10:13.191Z,32.90
2023-08-29T05:13:19.563Z,33.28
2023-08-29T05:16:25.352Z,30.65
2023-08-29T05:19:31.625Z,27.67
2023-08-29T05:22:37.528Z,28.87
2023-08-29T05:25:43.448Z,28.57
2023-08-29T05:28:49.926Z,31.57
2023-08-29T05:31:55.820Z,30.45
2023-08-29T05:35:01.424Z,29.90
2023-08-29T05:38:07.850Z,29.20
2023-08-29T05:41:14.090Z,28.05
2023-08-29T05:44:20.610Z,27.42
2023-08-29T05:47:25.713Z,25.65
2023-08-29T05:50:30.646Z,27.75
2023-08-29T05:53:35.880Z,29.35
2023-08-29T05:56:41.327Z,25.57
2023-08-29T05:59:48.579Z,30.95
2023-08-29T06:02:55.949Z,28.57
2023-08-29T06:06:07.079Z,23.98
2023-08-29T06:09:14.631Z,25.88
2023-08-29T06:12:39.266Z,25.27
2023-08-29T06:15:45.088Z,23.83
2023-08-29T06:18:51.178Z,26.45
2023-08-29T06:21:57.164Z,25.60
2023-08-29T06:25:02.622Z,24.52
2023-08-29T06:28:08.953Z,24.90
2023-08-29T06:31:22.590Z,25.45
2023-08-29T06:34:28.767Z,25.43
2023-08-29T06:37:35.311Z,22.42
2023-08-29T06:40:41.917Z,35.05
2023-08-29T06:43:48.625Z,30.15
2023-08-29T06:46:54.605Z,23.20
2023-08-29T06:50:01.045Z,26.20
2023-08-29T06:53:25.192Z,26.75
2023-08-29T06:56:31.407Z,21.33
2023-08-29T06:59:37.098Z,20.88
2023-08-29T07:02:42.350Z,22.40
2023-08-29T07:05:49.950Z,23.30
2023-08-29T07:09:13.840Z,25.52
2023-08-29T07:12:37.116Z,20.20
2023-08-29T07:15:42.142Z,23.65
2023-08-29T07:18:47.947Z,24.65
2023-08-29T07:21:56.233Z,20.57
2023-08-29T07:25:03.824Z,19.20
2023-08-29T07:28:09.650Z,19.45
2023-08-29T07:31:34.159Z,18.75
2023-08-29T07:34:58.016Z,18.90
2023-08-29T07:38:05.818Z,20.97
2023-08-29T07:41:13.964Z,19.62
2023-08-29T07:44:20.926Z,19.82
2023-08-29T07:47:26.283Z,19.90
2023-08-29T07:50:31.975Z,18.00
2023-08-29T07:53:39.817Z,22.10
2023-08-29T07:56:48.739Z,19.15
2023-08-29T07:59:54.729Z,17.75
2023-08-29T08:03:03.578Z,17.05
2023-08-29T08:06:09.613Z,16.80
2023-08-29T08:09:17.333Z,16.25
2023-08-29T08:12:22.818Z,21.15
2023-08-29T08:15:30.041Z,19.02
2023-08-29T08:18:35.724Z,21.93
2023-08-29T08:21:43.578Z,19.37
2023-08-29T08:24:49.105Z,17.77
2023-08-29T08:27:58.278Z,21.87
2023-08-29T08:31:04.264Z,23.73
2023-08-29T08:34:11.449Z,16.85
2023-08-29T08:37:18.059Z,19.75
2023-08-29T08:40:26.362Z,18.67
2023-08-29T08:43:31.775Z,26.42
2023-08-29T08:46:54.860Z,22.77
2023-08-29T08:50:18.600Z,18.52
2023-08-29T08:53:42.415Z,20.15
2023-08-29T08:56:47.736Z,20.32
2023-08-29T08:59:54.803Z,19.80
2023-08-29T09:03:00.075Z,19.37
2023-08-29T09:06:12.147Z,18.98
2023-08-29T09:09:37.472Z,14.43
2023-08-29T09:12:42.971Z,15.08
2023-08-29T09:15:50.701Z,15.70
2023-08-29T09:19:00.175Z,14.58
2023-08-29T09:22:06.583Z,17.02
2023-08-29T09:25:20.211Z,14.95
2023-08-29T09:28:27.257Z,16.85
2023-08-29T09:31:32.629Z,13.78
2023-08-29T09:34:46.495Z,14.65
2023-08-29T09:38:01.200Z,13.80
2023-08-29T09:41:07.157Z,14.25
2023-08-29T09:44:12.489Z,14.60
2023-08-29T09:47:24.322Z,14.15
2023-08-29T09:50:32.569Z,13.75
2023-08-29T09:53:38.026Z,16.80
2023-08-29T09:56:43.778Z,17.27
2023-08-29T09:59:50.781Z,14.13
2023-08-29T10:02:58.893Z,14.10
2023-08-29T10:06:05.498Z,12.50
2023-08-29T10:09:13.847Z,15.40
2023-08-29T10:12:18.702Z,14.35
2023-08-29T10:19:34.945Z,14.07
2023-08-29T10:22:43.936Z,13.15
2023-08-29T10:25:49.018Z,11.93
2023-08-29T10:28:54.361Z,12.60
2023-08-29T10:32:00.641Z,12.15
2023-08-29T10:35:00.584Z,15.30
2023-08-29T10:37:53.371Z,12.15
2023-08-29T10:40:59.316Z,12.33
2023-08-29T10:44:05.897Z,13.05
2023-08-29T10:47:31.950Z,13.58
2023-08-29T10:50:38.874Z,14.00
2023-08-29T10:53:44.774Z,14.28
2023-08-29T10:57:00.661Z,10.90
2023-08-29T11:00:07.323Z,14.20
2023-08-29T11:03:14.349Z,15.32
2023-08-29T11:06:20.777Z,11.22
2023-08-29T11:09:38.031Z,10.32
2023-08-29T11:12:43.482Z,22.55
2023-08-29T11:16:11.000Z,11.00
2023-08-29T11:19:22.554Z,10.65
2023-08-29T11:22:31.177Z,12.07
2023-08-29T11:25:38.672Z,10.50
2023-08-29T11:28:45.360Z,9.10
2023-08-29T11:31:56.978Z,10.35
2023-08-29T11:35:07.497Z,12.07
2023-08-29T11:38:15.416Z,10.93
2023-08-29T11:41:35.529Z,9.68
2023-08-29T11:45:01.993Z,11.90
2023-08-29T11:47:42.865Z,12.05
2023-08-29T11:50:51.603Z,16.87
2023-08-29T11:53:56.926Z,22.35
2023-08-29T11:57:04.126Z,10.72
2023-08-29T12:00:12.819Z,12.07
2023-08-29T12:03:19.062Z,10.82
2023-08-29T12:06:28.468Z,16.57
2023-08-29T12:09:39.418Z,11.53
2023-08-29T12:12:48.752Z,14.45
2023-08-29T12:15:55.015Z,14.83
2023-08-29T12:19:01.162Z,11.60
2023-08-29T12:22:10.308Z,11.00
2023-08-29T12:25:14.793Z,17.67
2023-08-29T12:28:22.996Z,13.30
2023-08-29T12:31:29.335Z,16.55
2023-08-29T12:34:35.376Z,11.63
2023-08-29T12:37:40.993Z,13.28
2023-08-29T12:40:47.119Z,11.15
2023-08-29T12:43:53.322Z,13.98
2023-08-29T12:47:00.345Z,12.10
2023-08-29T12:50:08.450Z,13.48
2023-08-29T12:53:14.824Z,14.47
2023-08-29T12:56:21.022Z,13.08
2023-08-29T12:59:25.561Z,15.68
2023-08-29T13:02:31.594Z,14.00
2023-08-29T13:05:37.925Z,12.10
2023-08-29T13:08:45.160Z,15.30
2023-08-29T13:11:51.330Z,14.28
2023-08-29T13:14:58.007Z,13.98
2023-08-29T13:18:02.710Z,16.52
2023-08-29T13:21:08.878Z,11.03
2023-08-29T13:24:15.216Z,14.13
2023-08-29T13:27:20.174Z,13.08
2023-08-29T13:30:27.061Z,14.43
2023-08-29T13:33:32.669Z,14.87
2023-08-29T13:36:40.709Z,23.95
2023-08-29T13:39:48.926Z,13.72
2023-08-29T13:42:55.007Z,13.35
2023-08-29T13:46:00.941Z,14.68
2023-08-29T13:49:07.195Z,13.38
2023-08-29T13:52:16.205Z,12.45
2023-08-29T13:55:22.800Z,11.43
2023-08-29T13:58:27.947Z,13.60
2023-08-29T14:01:33.703Z,12.73
2023-08-29T14:04:40.523Z,16.12
2023-08-29T14:07:46.158Z,14.30
2023-08-29T14:10:51.743Z,12.18
2023-08-29T14:13:57.801Z,14.43
2023-08-29T14:17:03.506Z,16.27
2023-08-29T14:20:10.439Z,15.23
2023-08-29T14:23:15.960Z,16.23
2023-08-29T14:26:26.407Z,15.10
2023-08-29T14:29:33.020Z,12.95
2023-08-29T14:32:37.865Z,19.32
2023-08-29T14:35:46.065Z,13.00
2023-08-29T14:38:52.050Z,12.70
2023-08-29T14:42:00.123Z,13.90
2023-08-29T14:45:07.530Z,16.67
2023-08-29T14:48:13.890Z,12.65
2023-08-29T14:51:23.204Z,16.97
2023-08-29T14:54:28.817Z,15.23
2023-08-29T14:57:34.512Z,12.40
2023-08-29T15:00:42.520Z,14.98
2023-08-29T15:03:48.279Z,12.82
2023-08-29T15:06:54.779Z,15.50
2023-08-29T15:10:01.532Z,18.23
2023-08-29T15:13:08.341Z,15.03
2023-08-29T15:16:19.018Z,15.50
2023-08-29T15:19:25.993Z,15.00
2023-08-29T15:22:33.878Z,14.00
2023-08-29T15:25:41.168Z,15.28
2023-08-29T15:28:47.353Z,16.57
2023-08-29T15:31:54.790Z,13.20
2023-08-29T15:35:01.453Z,14.75
2023-08-29T15:38:06.706Z,15.45
2023-08-29T15:41:13.097Z,15.32
2023-08-29T15:44:18.008Z,15.45
2023-08-29T15:47:23.655Z,16.35
2023-08-29T15:50:29.893Z,14.53
2023-08-29T15:53:35.468Z,19.30
2023-08-29T15:56:43.542Z,18.80
2023-08-29T15:59:50.176Z,17.10
2023-08-29T16:02:57.914Z,14.98
2023-08-29T16:06:05.261Z,16.48
2023-08-29T16:09:11.532Z,17.42
2023-08-29T16:12:19.904Z,16.42
2023-08-29T16:15:26.270Z,19.02
2023-08-29T16:18:33.400Z,15.43
2023-08-29T16:21:39.722Z,20.70
2023-08-29T16:24:46.545Z,19.45
2023-08-29T16:27:52.892Z,21.05
2023-08-29T16:30:58.235Z,22.82
2023-08-29T16:34:03.755Z,20.77
2023-08-29T16:37:09.169Z,24.32
2023-08-29T16:40:15.772Z,24.15
2023-08-29T16:43:21.762Z,27.48
2023-08-29T16:46:26.985Z,21.52
2023-08-29T16:49:33.480Z,29.07
2023-08-29T16:52:38.757Z,21.07
2023-08-29T16:55:46.935Z,23.98
2023-08-29T16:58:52.987Z,20.92
2023-08-29T17:01:58.992Z,24.00
2023-08-29T17:05:07.686Z,21.27
2023-08-29T17:08:13.550Z,20.48
2023-08-29T17:11:20.589Z,21.62
2023-08-29T17:14:29.058Z,19.90
2023-08-29T17:17:35.134Z,21.93
2023-08-29T17:20:40.651Z,21.93
2023-08-29T17:23:46.731Z,22.60
2023-08-29T17:26:53.296Z,24.82
2023-08-29T17:29:59.016Z,18.07
2023-08-29T17:33:06.273Z,22.62
2023-08-29T17:36:14.346Z,23.52
2023-08-29T17:39:22.047Z,23.02
2023-08-29T17:42:27.700Z,23.75
2023-08-29T17:45:33.722Z,18.75
2023-08-29T17:48:40.478Z,21.48
2023-08-29T17:51:46.887Z,25.32
2023-08-29T17:54:52.510Z,21.23
2023-08-29T17:57:58.572Z,23.15
2023-08-29T18:01:04.640Z,20.57
2023-08-29T18:04:15.657Z,18.85
2023-08-29T18:07:22.516Z,20.88
2023-08-29T18:10:31.697Z,19.10
2023-08-29T18:13:38.312Z,18.02
2023-08-29T18:16:44.298Z,27.42
2023-08-29T18:19:53.436Z,25.25
2023-08-29T18:22:59.880Z,23.65
2023-08-29T18:26:14.468Z,16.20
2023-08-29T18:29:19.929Z,20.32
2023-08-29T18:32:25.679Z,19.60
2023-08-29T18:35:31.661Z,21.27
2023-08-29T18:38:39.211Z,19.82
2023-08-29T18:41:45.887Z,21.33
2023-08-29T18:44:55.458Z,17.05
2023-08-29T18:48:04.760Z,18.30
2023-08-29T18:51:10.593Z,22.42
2023-08-29T18:54:16.273Z,20.55
2023-08-29T18:57:24.198Z,22.30
2023-08-29T19:00:32.691Z,18.70
2023-08-29T19:03:39.763Z,19.45
2023-08-29T19:06:48.832Z,19.60
2023-08-29T19:09:55.184Z,17.05
2023-08-29T19:13:02.872Z,16.50
2023-08-29T19:16:11.045Z,19.40
2023-08-29T19:19:17.029Z,19.57
2023-08-29T19:22:24.489Z,19.10
2023-08-29T19:25:30.410Z,19.77
2023-08-29T19:28:38.232Z,21.25
2023-08-29T19:31:43.886Z,16.32
2023-08-29T19:34:50.311Z,17.25
2023-08-29T19:37:56.270Z,19.92
2023-08-29T19:41:01.713Z,17.75
2023-08-29T19:44:09.068Z,18.65
2023-08-29T19:47:14.547Z,15.63
2023-08-29T19:50:21.047Z,18.82
2023-08-29T19:53:26.873Z,21.20
2023-08-29T19:56:32.943Z,18.20
2023-08-29T19:59:39.320Z,13.93
2023-08-29T20:02:47.580Z,21.42
2023-08-29T20:05:54.095Z,20.45
2023-08-29T20:09:01.294Z,19.57
2023-08-29T20:12:07.712Z,14.87
2023-08-29T20:15:12.593Z,16.95
2023-08-29T20:18:18.960Z,15.53
2023-08-29T20:21:25.920Z,16.60
2023-08-29T20:24:34.559Z,16.35
2023-08-29T20:27:39.597Z,15.98
2023-08-29T20:30:51.744Z,17.12
2023-08-29T20:33:59.728Z,18.25
2023-08-29T20:37:05.252Z,16.55
2023-08-29T20:40:12.544Z,19.17
2023-08-29T20:43:17.499Z,18.57
2023-08-29T20:46:22.741Z,15.25
2023-08-29T20:49:32.076Z,17.25
2023-08-29T20:52:38.371Z,16.60
2023-08-29T20:55:44.182Z,18.32
2023-08-29T20:58:50.785Z,16.90
2023-08-29T21:01:56.924Z,20.02
2023-08-29T21:05:05.421Z,16.60
2023-08-29T21:08:12.251Z,15.45
2023-08-29T21:11:18.783Z,17.00
2023-08-29T21:14:24.967Z,13.65
2023-08-29T21:17:32.361Z,14.58
2023-08-29T21:20:40.314Z,14.78
2023-08-29T21:23:47.965Z,13.35
2023-08-29T21:26:56.675Z,13.22
2023-08-29T21:30:02.973Z,13.93
2023-08-29T21:33:08.952Z,12.53
2023-08-29T21:36:15.272Z,15.85
2023-08-29T21:39:23.334Z,16.42
2023-08-29T21:42:29.130Z,12.78
2023-08-29T21:45:35.397Z,12.85
2023-08-29T21:48:40.957Z,12.47
2023-08-29T21:51:47.535Z,15.70
2023-08-29T21:54:54.919Z,15.15
2023-08-29T21:58:01.072Z,15.85
2023-08-29T22:01:09.092Z,17.27
2023-08-29T22:04:17.006Z,17.20
2023-08-29T22:07:25.063Z,14.90
2023-08-29T22:10:30.123Z,12.88
2023-08-29T22:13:35.958Z,13.62
2023-08-29T22:16:41.482Z,11.97
2023-08-29T22:19:48.027Z,16.97
2023-08-29T22:22:55.025Z,16.82
2023-08-29T22:26:02.807Z,14.13
2023-08-29T22:29:08.461Z,10.95
2023-08-29T22:32:14.311Z,14.30
2023-08-29T22:35:21.400Z,13.62
2023-08-29T22:38:28.214Z,12.00
2023-08-29T22:41:35.658Z,15.45
2023-08-29T22:44:41.168Z,12.25
2023-08-29T22:47:49.212Z,12.88
2023-08-29T22:50:56.413Z,11.45
2023-08-29T22:54:01.548Z,11.12
2023-08-29T22:57:07.816Z,14.18
2023-08-29T23:00:14.817Z,14.50
2023-08-29T23:03:21.085Z,14.13
2023-08-29T23:06:28.630Z,12.43
2023-08-29T23:09:35.095Z,11.95
2023-08-29T23:12:40.788Z,15.15
2023-08-29T23:15:45.639Z,13.20
2023-08-29T23:18:51.977Z,14.85
2023-08-29T23:21:57.241Z,12.13
2023-08-29T23:25:03.181Z,11.38
2023-08-29T23:28:08.182Z,16.75
2023-08-29T23:31:15.124Z,11.95
2023-08-29T23:34:21.695Z,13.20
2023-08-29T23:37:28.768Z,14.68
2023-08-29T23:40:34.738Z,13.35
2023-08-29T23:43:40.040Z,10.93
2023-08-29T23:46:45.116Z,15.03
2023-08-29T23:49:52.617Z,11.55
2023-08-29T23:52:58.779Z,12.70
2023-08-29T23:56:05.089Z,11.78
2023-08-29T23:59:12.073Z,12.13
